Huvudsida
METAR-TAF:

METAR-TAF

Flygplatser :

Koror, Babeldaob, Palau

latitud: 07-22N, longitud: 134-32E, höjd: 54 m

Aktuellt väderrapport

Denna rapport gjordes för 46 minuter sedan, klockan 23:53 UTC
Vind 8 kt från nordost i byarna ända upp till 17 kt
Temperatur 29°C
Fuktighet 79%
Tryck 1010 hPa
Sikt: 24.1 km
Få moln på en höjd av 1000 ft
Spridda moln på en höjd av 1600 ft
Brutna moln på en höjd av 12000 ft
Brutna moln på en höjd av 30000 ft

METAR: PTRO 092353Z 05008G17KT 15SM FEW010 SCT016 BKN120 BKN300 29/25 A2983

Tid: 09:39 (00:39 UTC)

Väderprognos

Denna rapport gjordes för 1 timme och 9 minuter sedan, klockan 23:30 UTC
Prognos gäller från 10 kl. 00 UTC till 10 kl. 24 UTC
Vind 10 kt från ost/nordost i byarna ända upp till 18 kt
Sikt: 10 km
Spridda moln på en höjd av 1600 ft
Spridda moln på en höjd av 4000 ft
skurar i närheten

TAF: PTRO 092330Z 1000/1024 06010G18KT P6SM VCSH SCT016 SCT040

Aktuella väderrapporter och prognoser från 4000 flygplatser (METAR- och TAF-rapporter).

De tillgängliga stationerna syns som gula och röda prickar på kartan.

För musen över prickarna för att se namnen på stationerna.

Klicka sedan för att få väderrapporter och prognoser.

För att ändra kartan: Klicka på de gröna knapparna med ett svart kors på för att zooma in; den gröna knappen med ett streck på för att zooma ut; eller på de gröna pilarna för angränsande kartor.


METAR-TAF: